EST,Max TemperatureF,Mean TemperatureF,Min TemperatureF,Max Dew PointF,MeanDew PointF,Min DewpointF,Max Humidity, Mean Humidity, Min Humidity, Max Sea Level PressureIn, Mean Sea Level PressureIn, Min Sea Level PressureIn, Max VisibilityMiles, Mean VisibilityMiles, Min VisibilityMiles, Max Wind SpeedMPH, Mean Wind SpeedMPH, Max Gust SpeedMPH,PrecipitationIn, CloudCover, Events, WindDirDegrees
2013-11-1,70,61,52,64,56,45,100,78,45,29.83,29.76,29.69,10,10,3,22,11,34,0.40,5,Rain,269
2013-11-2,59,52,44,50,43,36,100,75,46,30.06,29.88,29.80,10,10,10,17,3,25,0.00,3,Rain,311
2013-11-3,53,46,39,41,37,33,95,73,51,30.33,30.21,30.06,10,10,10,10,3,,0.00,4,,2
2013-11-4,58,48,37,36,33,32,83,59,37,30.46,30.41,30.35,10,10,3,13,8,,0.00,0,,96
2013-11-5,63,52,41,45,34,31,91,57,33,30.49,30.42,30.37,10,10,3,12,8,17,0.00,0,,94
2013-11-6,72,58,44,54,50,44,100,78,49,30.37,30.24,30.10,10,10,10,14,3,21,0.00,2,,153
2013-11-7,57,48,39,56,44,31,100,83,60,30.22,30.12,30.03,10,9,2,14,4,22,0.26,5,Rain,318
2013-11-8,48,39,30,33,29,24,98,69,40,30.34,30.28,30.23,10,10,10,10,4,16,0.00,0,,324
2013-11-9,55,42,29,32,29,26,87,62,37,30.30,30.25,30.20,10,10,10,14,5,21,0.00,0,,229
2013-11-10,61,48,34,40,32,25,93,60,29,30.31,30.25,30.18,10,10,10,15,4,20,0.00,0,,302
2013-11-11,64,46,30,31,26,21,85,53,21,30.32,30.23,30.15,10,10,10,9,2,,0.00,1,,258
2013-11-12,49,38,27,41,28,18,92,71,41,30.48,30.27,30.10,10,10,4,16,6,23,0.00,8,Rain-Snow,351
2013-11-13,40,30,22,22,20,18,89,69,44,30.56,30.49,30.42,10,10,7,10,3,,0.00,2,,333
2013-11-14,53,37,21,26,22,19,93,61,28,30.45,30.36,30.27,10,10,7,10,1,,0.00,0,,242
2013-11-15,56,42,29,48,34,21,100,74,37,30.30,30.24,30.18,10,8,2,8,3,,0.22,4,Rain,98
2013-11-16,67,56,45,56,51,46,100,90,61,30.25,30.18,30.14,10,9,3,12,5,,0.11,4,,92
2013-11-17,70,59,48,62,56,48,100,91,59,30.16,30.00,29.86,10,10,7,9,3,,0.20,4,Rain,217
2013-11-18,61,53,44,62,43,29,100,66,36,30.11,29.99,29.86,10,10,7,14,7,25,0.09,3,Rain,315
2013-11-19,49,42,35,30,28,25,75,58,39,30.24,30.17,30.10,10,10,10,12,5,20,0.00,0,,29
2013-11-20,54,44,35,31,29,25,76,58,35,30.35,30.29,30.22,10,10,7,17,11,21,0.00,0,,100
2013-11-21,66,52,37,53,43,31,97,74,54,30.42,30.36,30.31,10,10,10,14,8,17,0.00,2,,101
2013-11-22,60,56,52,57,54,51,100,97,86,30.34,30.24,30.18,10,7,2,12,2,17,0.22,8,Rain,277
2013-11-23,52,42,30,52,36,17,98,77,46,30.30,30.22,30.17,10,10,10,14,8,26,0.00,6,,341
2013-11-24,30,26,21,17,9,3,71,52,32,30.50,30.41,30.29,10,10,10,14,8,26,0.00,2,Snow,1
2013-11-25,40,30,20,31,15,9,94,51,34,30.43,30.34,30.18,10,10,3,15,5,,0.02,4,Snow,94
2013-11-26,46,40,33,46,41,32,100,100,96,30.18,29.93,29.68,10,5,1,15,7,17,2.26,8,Rain,76
2013-11-27,38,31,23,38,26,15,100,86,67,30.21,29.90,29.70,10,6,1,16,8,24,0.10,8,Rain-Snow,338
2013-11-28,37,26,14,24,19,14,98,76,50,30.43,30.33,30.21,10,10,10,7,3,,0.00,1,,282
2013-11-29,45,33,21,29,25,20,99,76,48,30.55,30.49,30.43,10,10,7,12,1,,0.00,0,,109
2013-11-30,50,40,31,31,27,24,75,66,47,30.51,30.41,30.28,10,10,10,15,10,17,0.00,0,,90